createdAt,value
2023-03-12T00:00:05.210Z,0.000000
2023-03-12T00:01:00.356Z,0.000000
2023-03-12T00:02:00.414Z,0.000000
2023-03-12T00:03:00.356Z,0.000000
2023-03-12T00:04:00.440Z,0.000000
2023-03-12T00:05:04.807Z,0.000000
2023-03-12T00:06:09.053Z,0.000000
2023-03-12T00:07:01.184Z,0.000000
2023-03-12T00:08:00.463Z,0.000000
2023-03-12T00:09:00.377Z,0.000000
2023-03-12T00:10:04.098Z,0.000000
2023-03-12T00:11:00.391Z,0.000000
2023-03-12T00:12:00.526Z,0.000000
2023-03-12T00:13:00.417Z,0.000000
2023-03-12T00:14:00.478Z,0.000000
2023-03-12T00:15:04.941Z,0.000000
2023-03-12T00:16:00.558Z,0.000000
2023-03-12T00:17:00.435Z,0.000000
2023-03-12T00:18:00.548Z,0.000000
2023-03-12T00:19:00.487Z,0.000000
2023-03-12T00:20:05.256Z,0.000000
2023-03-12T00:21:00.480Z,0.000000
2023-03-12T00:22:00.539Z,0.000000
2023-03-12T00:23:00.484Z,0.000000
2023-03-12T00:24:00.590Z,0.000000
2023-03-12T00:25:05.038Z,0.000000
2023-03-12T00:26:00.583Z,0.000000
2023-03-12T00:27:00.515Z,0.000000
2023-03-12T00:28:00.616Z,0.000000
2023-03-12T00:29:00.542Z,0.000000
2023-03-12T00:30:05.492Z,0.000000
2023-03-12T00:31:00.639Z,0.000000
2023-03-12T00:32:00.610Z,0.000000
2023-03-12T00:33:00.542Z,0.000000
2023-03-12T00:34:00.608Z,0.000000
2023-03-12T00:35:04.061Z,0.000000
2023-03-12T00:36:00.690Z,0.000000
2023-03-12T00:37:00.558Z,0.000000
2023-03-12T00:38:00.622Z,0.000000
2023-03-12T00:39:00.571Z,0.000000
2023-03-12T00:40:05.296Z,0.000000
2023-03-12T00:41:00.587Z,0.000000
2023-03-12T00:42:00.724Z,0.000000
2023-03-12T00:43:00.587Z,0.000000
2023-03-12T00:44:00.685Z,0.000000
2023-03-12T00:45:04.230Z,0.000000
2023-03-12T00:46:00.696Z,0.000000
2023-03-12T00:47:00.693Z,0.000000
2023-03-12T00:48:00.737Z,0.000000
2023-03-12T00:49:00.627Z,0.000000
2023-03-12T00:50:06.118Z,0.000000
2023-03-12T00:51:00.667Z,0.000000
2023-03-12T00:52:00.730Z,0.000000
2023-03-12T00:53:00.668Z,0.000000
2023-03-12T00:54:00.781Z,0.000000
2023-03-12T00:55:05.149Z,0.000000
2023-03-12T00:56:00.769Z,0.000000
2023-03-12T00:57:00.709Z,0.000000
2023-03-12T00:58:00.762Z,0.000000
2023-03-12T00:59:00.696Z,0.000000
2023-03-12T01:00:05.529Z,0.000000
2023-03-12T01:01:00.797Z,0.000000
2023-03-12T01:02:00.799Z,0.000000
2023-03-12T01:03:00.744Z,0.000000
2023-03-12T01:04:00.874Z,0.000000
2023-03-12T01:05:05.280Z,0.000000
2023-03-12T01:06:00.875Z,0.000000
2023-03-12T01:07:00.762Z,0.000000
2023-03-12T01:08:00.859Z,0.000000
2023-03-12T01:09:00.780Z,0.000000
2023-03-12T01:10:05.465Z,0.000000
2023-03-12T01:11:00.807Z,0.000000
2023-03-12T01:12:00.948Z,0.000000
2023-03-12T01:13:00.785Z,0.000000
2023-03-12T01:14:00.917Z,0.000000
2023-03-12T01:15:04.355Z,0.000000
2023-03-12T01:16:00.952Z,0.000000
2023-03-12T01:17:00.827Z,0.000000
2023-03-12T01:18:00.937Z,0.000000
2023-03-12T01:19:00.821Z,0.000000
2023-03-12T01:20:05.522Z,0.000000
2023-03-12T01:21:00.850Z,0.000000
2023-03-12T01:22:00.939Z,0.000000
2023-03-12T01:23:00.893Z,0.000000
2023-03-12T01:24:00.976Z,0.000000
2023-03-12T01:25:04.379Z,0.000000
2023-03-12T01:26:00.979Z,0.000000
2023-03-12T01:27:00.925Z,0.000000
2023-03-12T01:28:01.037Z,0.000000
2023-03-12T01:29:00.929Z,0.000000
2023-03-12T01:30:05.836Z,0.000000
2023-03-12T01:31:00.907Z,0.000000
2023-03-12T01:32:01.021Z,0.000000
2023-03-12T01:33:00.936Z,0.000000
2023-03-12T01:34:01.017Z,0.000000
2023-03-12T01:35:04.432Z,0.000000
2023-03-12T01:36:01.140Z,0.000000
2023-03-12T01:37:00.922Z,0.000000
2023-03-12T01:38:01.016Z,0.000000
2023-03-12T01:39:00.960Z,0.000000
2023-03-12T01:40:05.775Z,0.000000
2023-03-12T01:41:01.011Z,0.000000
2023-03-12T01:42:01.062Z,0.000000
2023-03-12T01:43:00.972Z,0.000000
2023-03-12T01:44:01.038Z,0.000000
2023-03-12T01:45:06.252Z,0.000000
2023-03-12T01:46:01.203Z,0.000000
2023-03-12T01:47:01.004Z,0.000000
2023-03-12T01:48:01.154Z,0.000000
2023-03-12T01:49:01.037Z,0.000000
2023-03-12T01:50:04.795Z,0.000000
2023-03-12T01:51:01.051Z,0.000000
2023-03-12T01:52:01.131Z,0.000000
2023-03-12T01:53:01.042Z,0.000000
2023-03-12T01:54:01.147Z,0.000000
2023-03-12T01:55:05.569Z,0.000000
2023-03-12T01:56:01.130Z,0.000000
2023-03-12T01:57:01.068Z,0.000000
2023-03-12T01:58:01.169Z,0.000000
2023-03-12T01:59:01.069Z,0.000000
2023-03-12T02:00:05.864Z,0.000000
2023-03-12T02:01:01.182Z,0.000000
2023-03-12T02:02:01.176Z,0.000000
2023-03-12T02:03:04.982Z,0.000000
2023-03-12T02:04:01.251Z,0.000000
2023-03-12T02:05:05.567Z,0.000000
2023-03-12T02:06:01.236Z,0.000000
2023-03-12T02:07:01.155Z,0.000000
2023-03-12T02:08:01.213Z,0.000000
2023-03-12T02:09:01.150Z,0.000000
2023-03-12T02:10:05.890Z,0.000000
2023-03-12T02:11:01.196Z,0.000000
2023-03-12T02:12:01.254Z,0.000000
2023-03-12T02:13:01.160Z,0.000000
2023-03-12T02:14:01.250Z,0.000000
2023-03-12T02:15:04.835Z,0.000000
2023-03-12T02:16:01.272Z,0.000000
2023-03-12T02:17:01.215Z,0.000000
2023-03-12T02:18:01.269Z,0.000000
2023-03-12T02:19:01.231Z,0.000000
2023-03-12T02:20:04.955Z,0.000000
2023-03-12T02:21:00.241Z,0.000000
2023-03-12T02:22:00.303Z,0.000000
2023-03-12T02:23:00.256Z,0.000000
2023-03-12T02:24:00.331Z,0.000000
2023-03-12T02:25:03.745Z,0.000000
2023-03-12T02:26:00.349Z,0.000000
2023-03-12T02:27:00.259Z,0.000000
2023-03-12T02:28:00.327Z,0.000000
2023-03-12T02:29:00.289Z,0.000000
2023-03-12T02:30:05.009Z,0.000000
2023-03-12T02:31:00.292Z,0.000000
2023-03-12T02:32:00.408Z,0.000000
2023-03-12T02:33:00.383Z,0.000000
2023-03-12T02:34:00.370Z,0.000000
2023-03-12T02:35:03.885Z,0.000000
2023-03-12T02:36:00.444Z,0.000000
2023-03-12T02:37:00.298Z,0.000000
2023-03-12T02:38:00.405Z,0.000000
2023-03-12T02:39:00.336Z,0.000000
2023-03-12T02:40:05.688Z,0.000000
2023-03-12T02:41:00.335Z,0.000000
2023-03-12T02:42:00.447Z,0.000000
2023-03-12T02:43:00.336Z,0.000000
2023-03-12T02:44:00.404Z,0.000000
2023-03-12T02:45:04.880Z,0.000000
2023-03-12T02:46:00.520Z,0.000000
2023-03-12T02:47:00.404Z,0.000000
2023-03-12T02:48:00.455Z,0.000000
2023-03-12T02:49:00.393Z,0.000000
2023-03-12T02:50:05.146Z,0.000000
2023-03-12T02:51:00.398Z,0.000000
2023-03-12T02:52:00.513Z,0.000000
2023-03-12T02:53:00.391Z,0.000000
2023-03-12T02:54:00.500Z,0.000000
2023-03-12T02:55:04.022Z,0.000000
2023-03-12T02:56:00.480Z,0.000000
2023-03-12T02:57:00.437Z,0.000000
2023-03-12T02:58:00.545Z,0.000000
2023-03-12T02:59:02.586Z,0.000000
2023-03-12T03:00:05.146Z,0.000000
2023-03-12T03:01:00.499Z,0.000000
2023-03-12T03:02:00.556Z,0.000000
2023-03-12T03:03:00.479Z,0.000000
2023-03-12T03:04:00.865Z,0.000000
2023-03-12T03:05:04.080Z,0.000000
2023-03-12T03:06:00.594Z,0.000000
2023-03-12T03:07:00.486Z,0.000000
2023-03-12T03:08:00.562Z,0.000000
2023-03-12T03:09:00.514Z,0.000000
2023-03-12T03:10:05.318Z,0.000000
2023-03-12T03:11:00.518Z,0.000000
2023-03-12T03:12:00.596Z,0.000000
2023-03-12T03:13:00.499Z,0.000000
2023-03-12T03:14:00.600Z,0.000000
2023-03-12T03:15:05.114Z,0.000000
2023-03-12T03:16:00.744Z,0.000000
2023-03-12T03:17:00.549Z,0.000000
2023-03-12T03:18:00.686Z,0.000000
2023-03-12T03:19:00.530Z,0.000000
2023-03-12T03:20:06.257Z,0.000000
2023-03-12T03:21:00.562Z,0.000000
2023-03-12T03:22:00.702Z,0.000000
2023-03-12T03:23:00.572Z,0.000000
2023-03-12T03:24:00.655Z,0.000000
2023-03-12T03:25:04.097Z,0.000000
2023-03-12T03:26:00.683Z,0.000000
2023-03-12T03:27:00.604Z,0.000000
2023-03-12T03:28:00.729Z,0.000000
2023-03-12T03:29:00.596Z,0.000000
2023-03-12T03:30:05.437Z,0.000000
2023-03-12T03:31:00.799Z,0.000000
2023-03-12T03:32:00.707Z,0.000000
2023-03-12T03:33:00.629Z,0.000000
2023-03-12T03:34:00.728Z,0.000000
2023-03-12T03:35:05.846Z,0.000000
2023-03-12T03:36:00.829Z,0.000000
2023-03-12T03:37:00.673Z,0.000000
2023-03-12T03:38:00.800Z,0.000000
2023-03-12T03:39:00.665Z,0.000000
2023-03-12T03:40:05.441Z,0.000000
2023-03-12T03:41:00.684Z,0.000000
2023-03-12T03:42:00.764Z,0.000000
2023-03-12T03:43:00.679Z,0.000000
2023-03-12T03:44:01.635Z,0.000000
2023-03-12T03:45:05.420Z,0.000000
2023-03-12T03:46:00.825Z,0.000000
2023-03-12T03:47:00.700Z,0.000000
2023-03-12T03:48:00.842Z,0.000000
2023-03-12T03:49:00.729Z,0.000000
2023-03-12T03:50:05.530Z,0.000000
2023-03-12T03:51:00.750Z,0.000000
2023-03-12T03:52:00.841Z,0.000000
2023-03-12T03:53:00.772Z,0.000000
2023-03-12T03:54:00.871Z,0.000000
2023-03-12T03:55:05.221Z,0.000000
2023-03-12T03:56:00.844Z,0.000000
2023-03-12T03:57:00.783Z,0.000000
2023-03-12T03:58:01.672Z,0.000000
2023-03-12T03:59:00.794Z,0.000000
2023-03-12T04:00:06.404Z,0.000000
2023-03-12T04:01:00.830Z,0.000000
2023-03-12T04:02:00.902Z,0.000000
2023-03-12T04:03:00.934Z,0.000000
2023-03-12T04:04:00.939Z,0.000000
2023-03-12T04:05:05.280Z,0.000000
2023-03-12T04:06:00.999Z,0.000000
2023-03-12T04:07:00.851Z,0.000000
2023-03-12T04:08:00.938Z,0.000000
2023-03-12T04:09:00.890Z,0.000000
2023-03-12T04:10:05.626Z,0.000000
2023-03-12T04:11:00.894Z,0.000000
2023-03-12T04:12:01.669Z,0.000000
2023-03-12T04:13:00.905Z,0.000000
2023-03-12T04:14:00.991Z,0.000000
2023-03-12T04:15:04.445Z,0.000000
2023-03-12T04:16:01.060Z,0.000000
2023-03-12T04:17:00.909Z,0.000000
2023-03-12T04:18:01.091Z,0.000000
2023-03-12T04:19:00.935Z,0.000000
2023-03-12T04:20:05.728Z,0.000000
2023-03-12T04:21:00.985Z,0.000000
2023-03-12T04:22:01.090Z,0.000000
2023-03-12T04:23:00.989Z,0.000000
2023-03-12T04:24:01.086Z,0.000000
2023-03-12T04:25:05.406Z,0.000000
2023-03-12T04:26:01.664Z,0.000000
2023-03-12T04:27:01.014Z,0.000000
2023-03-12T04:28:01.104Z,0.000000
2023-03-12T04:29:01.010Z,0.000000
2023-03-12T04:30:06.646Z,0.000000
2023-03-12T04:31:01.135Z,0.000000
2023-03-12T04:32:01.161Z,0.000000
2023-03-12T04:33:01.062Z,0.000000
2023-03-12T04:34:01.161Z,0.000000
2023-03-12T04:35:04.579Z,0.000000
2023-03-12T04:36:01.265Z,0.000000
2023-03-12T04:37:01.096Z,0.000000
2023-03-12T04:38:01.161Z,0.000000
2023-03-12T04:39:01.116Z,0.000000
2023-03-12T04:40:06.005Z,0.000000
2023-03-12T04:41:01.102Z,0.000000
2023-03-12T04:42:01.277Z,0.000000
2023-03-12T04:43:01.141Z,0.000000
2023-03-12T04:44:01.211Z,0.000000
2023-03-12T04:45:05.623Z,0.000000
2023-03-12T04:46:01.285Z,0.000000
2023-03-12T04:47:01.204Z,0.000000
2023-03-12T04:48:01.288Z,0.000000
2023-03-12T04:49:01.154Z,0.000000
2023-03-12T04:50:05.989Z,0.000000
2023-03-12T04:51:01.185Z,0.000000
2023-03-12T04:52:01.283Z,0.000000
2023-03-12T04:53:00.176Z,0.000000
2023-03-12T04:54:01.690Z,0.000000
2023-03-12T04:55:04.789Z,0.000000
2023-03-12T04:56:00.261Z,0.000000
2023-03-12T04:57:00.232Z,0.000000
2023-03-12T04:58:00.322Z,0.000000
2023-03-12T04:59:00.211Z,0.000000
2023-03-12T05:00:06.064Z,0.000000
2023-03-12T05:01:01.233Z,0.000000
2023-03-12T05:02:01.357Z,0.000000
2023-03-12T05:03:01.438Z,0.000000
2023-03-12T05:04:01.367Z,0.000000
2023-03-12T05:05:04.829Z,0.000000
2023-03-12T05:06:01.386Z,0.000000
2023-03-12T05:07:01.266Z,0.000000
2023-03-12T05:08:01.371Z,0.000000
2023-03-12T05:09:01.331Z,0.000000
2023-03-12T05:10:05.956Z,0.000000
2023-03-12T05:11:01.315Z,0.000000
2023-03-12T05:12:01.661Z,0.000000
2023-03-12T05:13:01.329Z,0.000000
2023-03-12T05:14:01.391Z,0.000000
2023-03-12T05:15:05.895Z,0.000000
2023-03-12T05:16:01.485Z,0.000000
2023-03-12T05:17:01.367Z,0.000000
2023-03-12T05:18:01.407Z,0.000000
2023-03-12T05:19:01.368Z,0.000000
2023-03-12T05:20:06.244Z,0.000000
2023-03-12T05:21:01.383Z,0.000000
2023-03-12T05:22:01.420Z,0.000000
2023-03-12T05:23:01.363Z,0.000000
2023-03-12T05:24:01.452Z,0.000000
2023-03-12T05:25:07.318Z,0.000000
2023-03-12T05:26:01.683Z,0.000000
2023-03-12T05:27:01.406Z,0.000000
2023-03-12T05:28:01.477Z,0.000000
2023-03-12T05:29:01.415Z,0.000000
2023-03-12T05:30:06.174Z,0.000000
2023-03-12T05:31:01.425Z,0.000000
2023-03-12T05:32:01.500Z,0.000000
2023-03-12T05:33:01.944Z,0.000000
2023-03-12T05:34:01.472Z,0.000000
2023-03-12T05:35:06.009Z,0.000000
2023-03-12T05:36:01.585Z,0.000000
2023-03-12T05:37:01.478Z,0.000000
2023-03-12T05:38:01.513Z,0.000000
2023-03-12T05:39:01.453Z,0.000000
2023-03-12T05:40:05.302Z,6.100000
2023-03-12T05:41:01.457Z,6.100000
2023-03-12T05:42:00.552Z,6.100000
2023-03-12T05:43:00.559Z,14.200000
2023-03-12T05:44:01.725Z,14.200000
2023-03-12T05:45:05.160Z,14.200000
2023-03-12T05:46:00.666Z,22.400000
2023-03-12T05:47:00.526Z,22.400000
2023-03-12T05:48:00.614Z,26.400000
2023-03-12T05:49:00.529Z,26.400000
2023-03-12T05:50:05.384Z,26.400000
2023-03-12T05:51:00.549Z,34.600000
2023-03-12T05:52:00.573Z,34.600000
2023-03-12T05:53:00.535Z,34.600000
2023-03-12T05:54:00.644Z,52.900000
2023-03-12T05:55:05.072Z,52.900000
2023-03-12T05:56:00.605Z,75.300000
2023-03-12T05:57:00.562Z,75.300000
2023-03-12T05:58:01.654Z,75.300000
2023-03-12T05:59:00.543Z,115.900000
2023-03-12T06:00:05.528Z,115.900000
2023-03-12T06:01:00.576Z,166.800000
2023-03-12T06:02:01.718Z,166.800000
2023-03-12T06:03:00.679Z,166.800000
2023-03-12T06:04:00.677Z,225.800000
2023-03-12T06:05:05.229Z,225.800000
2023-03-12T06:06:01.671Z,278.700000
2023-03-12T06:07:00.614Z,278.700000
2023-03-12T06:08:00.689Z,278.700000
2023-03-12T06:09:00.622Z,317.300000
2023-03-12T06:10:05.475Z,317.300000
2023-03-12T06:11:00.654Z,358.000000
2023-03-12T06:12:00.744Z,358.000000
2023-03-12T06:13:00.640Z,358.000000
2023-03-12T06:14:01.657Z,349.800000
2023-03-12T06:15:05.213Z,349.800000
2023-03-12T06:16:00.758Z,349.800000
2023-03-12T06:17:00.779Z,301.000000
2023-03-12T06:18:00.809Z,301.000000
2023-03-12T06:19:00.704Z,288.800000
2023-03-12T06:20:06.079Z,288.800000
2023-03-12T06:21:00.731Z,288.800000
2023-03-12T06:22:00.799Z,272.600000
2023-03-12T06:23:00.726Z,272.600000
2023-03-12T06:24:00.865Z,301.000000
2023-03-12T06:25:05.181Z,301.000000
2023-03-12T06:26:00.833Z,398.700000
2023-03-12T06:27:00.767Z,398.700000
2023-03-12T06:28:01.660Z,398.700000
2023-03-12T06:29:00.759Z,439.300000
2023-03-12T06:30:05.802Z,439.300000
2023-03-12T06:31:00.788Z,476.000000
2023-03-12T06:32:01.744Z,476.000000
2023-03-12T06:33:00.803Z,476.000000
2023-03-12T06:34:00.880Z,490.200000
2023-03-12T06:35:04.361Z,490.200000
2023-03-12T06:36:00.930Z,490.200000
2023-03-12T06:37:00.818Z,490.200000
2023-03-12T06:38:00.889Z,490.200000
2023-03-12T06:39:00.825Z,524.800000
2023-03-12T06:40:06.517Z,524.800000
2023-03-12T06:41:00.840Z,524.800000
2023-03-12T06:42:00.955Z,600.000000
2023-03-12T06:43:00.836Z,600.000000
2023-03-12T06:44:00.941Z,659.000000
2023-03-12T06:45:05.367Z,659.000000
2023-03-12T06:46:01.826Z,681.400000
2023-03-12T06:47:00.886Z,681.400000
2023-03-12T06:48:01.032Z,681.400000
2023-03-12T06:49:00.882Z,648.800000
2023-03-12T06:50:06.299Z,648.800000
2023-03-12T06:51:00.899Z,648.800000
2023-03-12T06:52:00.955Z,549.200000
2023-03-12T06:53:00.894Z,549.200000
2023-03-12T06:54:01.106Z,575.600000
2023-03-12T06:55:05.369Z,575.600000
2023-03-12T06:56:01.000Z,685.500000
2023-03-12T06:57:00.925Z,685.500000
2023-03-12T06:58:00.992Z,685.500000
2023-03-12T06:59:00.916Z,917.300000
2023-03-12T07:00:06.994Z,917.300000
2023-03-12T07:01:01.951Z,917.300000
2023-03-12T07:02:02.159Z,972.300000
2023-03-12T07:03:01.984Z,972.300000
2023-03-12T07:04:02.033Z,980.400000
2023-03-12T07:05:06.649Z,980.400000
2023-03-12T07:06:02.084Z,949.900000
2023-03-12T07:07:01.963Z,949.900000
2023-03-12T07:08:02.053Z,949.900000
2023-03-12T07:09:01.999Z,1057.700000
2023-03-12T07:10:07.289Z,1057.700000
2023-03-12T07:11:02.266Z,1057.700000
2023-03-12T07:12:02.334Z,1364.800000
2023-03-12T07:13:01.996Z,1364.800000
2023-03-12T07:14:02.089Z,1364.800000
2023-03-12T07:15:06.525Z,1543.800000
2023-03-12T07:16:02.179Z,1543.800000
2023-03-12T07:17:02.094Z,1537.700000
2023-03-12T07:18:02.148Z,1537.700000
2023-03-12T07:19:02.090Z,1537.700000
2023-03-12T07:20:06.858Z,1537.700000
2023-03-12T07:21:02.072Z,1537.700000
2023-03-12T07:22:02.121Z,1212.300000
2023-03-12T07:23:02.070Z,1212.300000
2023-03-12T07:24:02.187Z,1212.300000
2023-03-12T07:25:05.568Z,968.200000
2023-03-12T07:26:02.350Z,968.200000
2023-03-12T07:27:02.121Z,831.900000
2023-03-12T07:28:02.182Z,831.900000
2023-03-12T07:29:02.105Z,831.900000
2023-03-12T07:30:07.096Z,740.400000
2023-03-12T07:31:02.167Z,740.400000
2023-03-12T07:32:02.214Z,740.400000
2023-03-12T07:33:02.335Z,718.000000
2023-03-12T07:34:02.388Z,718.000000
2023-03-12T07:35:05.676Z,707.800000
2023-03-12T07:36:02.357Z,707.800000
2023-03-12T07:37:02.155Z,707.800000
2023-03-12T07:38:02.277Z,777.000000
2023-03-12T07:39:02.244Z,777.000000
2023-03-12T07:40:06.885Z,962.100000
2023-03-12T07:41:01.258Z,962.100000
2023-03-12T07:42:01.435Z,962.100000
2023-03-12T07:43:01.216Z,962.100000
2023-03-12T07:44:01.300Z,962.100000
2023-03-12T07:45:04.813Z,913.300000
2023-03-12T07:46:01.303Z,913.300000
2023-03-12T07:47:12.852Z,913.300000
2023-03-12T07:48:01.614Z,890.900000
2023-03-12T07:49:01.244Z,890.900000
2023-03-12T07:50:06.074Z,890.900000
2023-03-12T07:51:01.265Z,890.900000
2023-03-12T07:52:01.438Z,890.900000
2023-03-12T07:53:01.253Z,890.900000
2023-03-12T07:54:01.739Z,890.900000
2023-03-12T07:55:05.832Z,1145.100000
2023-03-12T07:56:01.446Z,1145.100000
2023-03-12T07:57:01.390Z,1145.100000
2023-03-12T07:58:01.418Z,1421.800000
2023-03-12T07:59:01.458Z,1421.800000
2023-03-12T08:00:06.321Z,1421.800000
2023-03-12T08:01:01.308Z,1421.800000
2023-03-12T08:02:01.598Z,1421.800000
2023-03-12T08:03:01.444Z,1338.400000
2023-03-12T08:04:00.451Z,1338.400000
2023-03-12T08:05:04.909Z,1330.200000
2023-03-12T08:06:00.531Z,1330.200000
2023-03-12T08:07:00.326Z,1330.200000
2023-03-12T08:08:00.403Z,1063.800000
2023-03-12T08:09:00.354Z,1045.500000
2023-03-12T08:10:05.814Z,1008.900000
2023-03-12T08:11:00.414Z,1008.900000
2023-03-12T08:12:01.748Z,1008.900000
2023-03-12T08:13:00.413Z,1008.900000
2023-03-12T08:14:00.455Z,1008.900000
2023-03-12T08:15:04.971Z,992.600000
2023-03-12T08:16:00.520Z,992.600000
2023-03-12T08:17:00.418Z,992.600000
2023-03-12T08:18:00.544Z,915.300000
2023-03-12T08:19:00.421Z,915.300000
2023-03-12T08:20:05.176Z,915.300000
2023-03-12T08:21:00.462Z,1008.900000
2023-03-12T08:22:00.551Z,1008.900000
2023-03-12T08:23:00.479Z,1043.400000
2023-03-12T08:24:00.570Z,1043.400000
2023-03-12T08:25:04.939Z,1025.100000
2023-03-12T08:26:01.693Z,1025.100000
2023-03-12T08:27:00.481Z,1244.800000
2023-03-12T08:28:00.544Z,1244.800000
2023-03-12T08:29:00.484Z,1244.800000
2023-03-12T08:30:06.771Z,1307.900000
2023-03-12T08:31:00.517Z,1307.900000
2023-03-12T08:32:04.947Z,1307.900000
2023-03-12T08:33:00.617Z,1303.800000
2023-03-12T08:34:00.581Z,1303.800000
2023-03-12T08:35:04.022Z,1338.400000
2023-03-12T08:36:00.764Z,1338.400000
2023-03-12T08:37:00.562Z,1307.900000
2023-03-12T08:38:00.669Z,1307.900000
2023-03-12T08:39:00.574Z,1307.900000
2023-03-12T08:40:05.286Z,1375.000000
2023-03-12T08:41:00.564Z,1375.000000
2023-03-12T08:42:00.723Z,1375.000000
2023-03-12T08:43:00.575Z,1403.500000
2023-03-12T08:44:00.652Z,1403.500000
2023-03-12T08:45:04.205Z,1269.200000
2023-03-12T08:46:00.733Z,1269.200000
2023-03-12T08:47:00.648Z,1269.200000
2023-03-12T08:48:00.727Z,1295.700000
2023-03-12T08:49:00.634Z,1295.700000
2023-03-12T08:50:05.428Z,1295.700000
2023-03-12T08:51:00.644Z,1289.600000
2023-03-12T08:52:00.716Z,1289.600000
2023-03-12T08:53:00.634Z,1301.800000
2023-03-12T08:54:01.778Z,1301.800000
2023-03-12T08:55:05.155Z,1301.800000
2023-03-12T08:56:00.745Z,1299.700000
2023-03-12T08:57:00.674Z,1299.700000
2023-03-12T08:58:00.744Z,1519.400000
2023-03-12T08:59:00.668Z,1519.400000
2023-03-12T09:00:05.497Z,1646.000000
2023-03-12T09:01:00.702Z,1646.000000
2023-03-12T09:02:00.794Z,1646.000000
2023-03-12T09:03:00.849Z,1725.000000
2023-03-12T09:04:00.829Z,1725.000000
2023-03-12T09:05:05.865Z,1725.000000
2023-03-12T09:06:00.863Z,1743.000000
2023-03-12T09:07:00.747Z,1743.000000
2023-03-12T09:08:00.817Z,1505.200000
2023-03-12T09:09:00.786Z,1505.200000
2023-03-12T09:10:05.570Z,1505.200000
2023-03-12T09:11:00.788Z,2368.000000
2023-03-12T09:12:01.745Z,2368.000000
2023-03-12T09:13:00.819Z,2368.000000
2023-03-12T09:14:31.238Z,2573.000000
2023-03-12T09:15:05.463Z,2573.000000
2023-03-12T09:16:00.868Z,2004.000000
2023-03-12T09:17:00.906Z,2004.000000
2023-03-12T09:18:01.066Z,2004.000000
2023-03-12T09:19:00.825Z,2144.000000
2023-03-12T09:20:05.525Z,2144.000000
2023-03-12T09:21:00.865Z,1912.000000
2023-03-12T09:22:00.902Z,2060.000000
2023-03-12T09:23:00.842Z,2343.000000
2023-03-12T09:24:00.955Z,2343.000000
2023-03-12T09:25:04.317Z,2343.000000
2023-03-12T09:26:01.765Z,2323.000000
2023-03-12T09:27:00.886Z,2323.000000
2023-03-12T09:28:00.963Z,2323.000000
2023-03-12T09:29:00.879Z,2518.000000
2023-03-12T09:30:05.717Z,2518.000000
2023-03-12T09:31:01.001Z,2683.000000
2023-03-12T09:32:00.966Z,2683.000000
2023-03-12T09:33:00.908Z,2370.000000
2023-03-12T09:34:00.991Z,2370.000000
2023-03-12T09:35:05.498Z,2370.000000
2023-03-12T09:36:01.088Z,2380.000000
2023-03-12T09:37:00.926Z,2380.000000
2023-03-12T09:38:01.054Z,2380.000000
2023-03-12T09:39:00.969Z,2801.000000
2023-03-12T09:40:05.734Z,2801.000000
2023-03-12T09:41:00.980Z,2801.000000
2023-03-12T09:42:01.098Z,2374.000000
2023-03-12T09:43:00.974Z,2374.000000
2023-03-12T09:44:01.672Z,2374.000000
2023-03-12T09:45:05.544Z,2374.000000
2023-03-12T09:46:01.137Z,2032.000000
2023-03-12T09:47:01.009Z,2032.000000
2023-03-12T09:48:01.123Z,2032.000000
2023-03-12T09:49:01.018Z,2683.000000
2023-03-12T09:50:05.840Z,2683.000000
2023-03-12T09:51:01.026Z,2750.000000
2023-03-12T09:52:01.089Z,2750.000000
2023-03-12T09:53:01.036Z,2750.000000
2023-03-12T09:54:01.188Z,2642.000000
2023-03-12T09:55:04.490Z,2642.000000
2023-03-12T09:56:01.156Z,2132.000000
2023-03-12T09:57:01.061Z,2132.000000
2023-03-12T09:58:01.739Z,2132.000000
2023-03-12T09:59:01.055Z,2591.000000
2023-03-12T10:00:06.586Z,2591.000000
2023-03-12T10:01:01.096Z,3261.000000
2023-03-12T10:02:01.695Z,3261.000000
2023-03-12T10:03:01.129Z,3261.000000
2023-03-12T10:04:01.180Z,3208.000000
2023-03-12T10:05:05.600Z,3208.000000
2023-03-12T10:06:01.815Z,2618.000000
2023-03-12T10:07:01.096Z,2618.000000
2023-03-12T10:08:10.426Z,2618.000000
2023-03-12T10:09:01.126Z,3016.000000
2023-03-12T10:10:05.807Z,3016.000000
2023-03-12T10:11:01.116Z,3016.000000
2023-03-12T10:12:01.245Z,2913.000000
2023-03-12T10:13:01.148Z,2913.000000
2023-03-12T10:14:01.759Z,2913.000000
2023-03-12T10:15:05.511Z,2549.000000
2023-03-12T10:16:01.283Z,2549.000000
2023-03-12T10:17:01.159Z,2254.000000
2023-03-12T10:18:01.589Z,2254.000000
2023-03-12T10:19:01.209Z,2254.000000
2023-03-12T10:20:05.885Z,2254.000000
2023-03-12T10:21:00.213Z,2254.000000
2023-03-12T10:22:00.271Z,2239.000000
2023-03-12T10:23:00.205Z,2239.000000
2023-03-12T10:24:00.325Z,2239.000000
2023-03-12T10:25:03.758Z,2526.000000
2023-03-12T10:26:00.290Z,3039.000000
2023-03-12T10:27:00.238Z,3200.000000
2023-03-12T10:28:01.696Z,3200.000000
2023-03-12T10:29:00.248Z,3218.000000
2023-03-12T10:30:04.953Z,3218.000000
2023-03-12T10:31:00.269Z,3218.000000
2023-03-12T10:32:00.328Z,2534.000000
2023-03-12T10:33:00.262Z,2534.000000
2023-03-12T10:34:00.342Z,2534.000000
2023-03-12T10:35:04.753Z,2431.000000
2023-03-12T10:36:00.425Z,2431.000000
2023-03-12T10:37:00.283Z,2431.000000
2023-03-12T10:38:00.407Z,2742.000000
2023-03-12T10:39:00.311Z,2742.000000
2023-03-12T10:40:05.043Z,2616.000000
2023-03-12T10:41:00.307Z,2616.000000
2023-03-12T10:42:01.734Z,2087.000000
2023-03-12T10:43:00.323Z,2087.000000
2023-03-12T10:44:00.415Z,2087.000000
2023-03-12T10:45:04.869Z,1810.000000
2023-03-12T10:46:00.472Z,1810.000000
2023-03-12T10:47:00.337Z,1810.000000
2023-03-12T10:48:00.448Z,1604.800000
2023-03-12T10:49:00.350Z,1604.800000
2023-03-12T10:50:05.169Z,1686.000000
2023-03-12T10:51:00.364Z,1686.000000
2023-03-12T10:52:00.436Z,1739.000000
2023-03-12T10:53:00.360Z,1739.000000
2023-03-12T10:54:00.477Z,1739.000000
2023-03-12T10:55:07.608Z,1808.000000
2023-03-12T10:56:01.703Z,1808.000000
2023-03-12T10:57:00.415Z,1808.000000
2023-03-12T10:58:00.498Z,1646.000000
2023-03-12T10:59:00.419Z,1646.000000
2023-03-12T11:00:05.205Z,2020.000000
2023-03-12T11:01:00.434Z,2020.000000
2023-03-12T11:02:00.553Z,2020.000000
2023-03-12T11:03:00.461Z,2166.000000
2023-03-12T11:04:00.525Z,2166.000000
2023-03-12T11:05:04.980Z,2205.000000
2023-03-12T11:06:00.641Z,2205.000000
2023-03-12T11:07:00.461Z,2205.000000
2023-03-12T11:08:00.560Z,2384.000000
2023-03-12T11:09:13.908Z,2384.000000
2023-03-12T11:10:05.306Z,2467.000000
2023-03-12T11:11:00.486Z,2467.000000
2023-03-12T11:12:01.707Z,2467.000000
2023-03-12T11:13:00.487Z,2132.000000
2023-03-12T11:14:00.580Z,2132.000000
2023-03-12T11:15:04.911Z,1910.000000
2023-03-12T11:16:00.651Z,1910.000000
2023-03-12T11:17:00.544Z,1910.000000
2023-03-12T11:18:00.629Z,1729.000000